Robinwood, Mississippi
Current Conditions -  °F | °C
As of 3:53 AM on Thursday 18 Dec 2014 (Local Time) from KMCB Reporting Station
Overcast Overcast  
Wind Chill: 46°   Ceiling: 9500
Heat Index: 46°   Visibility: 10mi
Dew Point: 41°   Wind: 0mph
Humidity: 83%   Direction: NA
Pressure: 30.17"   Gusts: NA
Location:  31.4742°N, 90.119°W
Report Text: KMCB 180953Z AUTO 00000KT 10SM OVC095 08/05 A3017 RMK AO2 SLP217 T00780050
Loading
Personal Weather Stations






























Interactive Weather Map New forecast layout! Learn more

10-Day Weather Forecast

Advertisements
Track Severe Weather on mobile